createdAt,value
2019-02-05T00:00:41.330Z,8.60
2019-02-05T00:03:12.273Z,9.60
2019-02-05T00:05:40.944Z,8.28
2019-02-05T00:08:09.651Z,8.60
2019-02-05T00:10:38.358Z,8.20
2019-02-05T00:13:06.777Z,8.95
2019-02-05T00:15:35.513Z,9.65
2019-02-05T00:18:04.281Z,9.33
2019-02-05T00:20:32.744Z,9.05
2019-02-05T00:23:01.407Z,8.83
2019-02-05T00:25:29.837Z,9.00
2019-02-05T00:27:58.249Z,8.33
2019-02-05T00:30:27.046Z,11.60
2019-02-05T00:32:55.709Z,9.53
2019-02-05T00:35:24.467Z,10.32
2019-02-05T00:37:53.145Z,10.50
2019-02-05T00:40:21.718Z,11.03
2019-02-05T00:42:50.133Z,10.45
2019-02-05T00:45:19.696Z,12.23
2019-02-05T00:47:48.734Z,12.73
2019-02-05T00:50:18.693Z,10.55
2019-02-05T00:52:47.181Z,10.68
2019-02-05T00:55:19.822Z,10.53
2019-02-05T00:57:48.482Z,12.07
2019-02-05T01:00:29.089Z,9.93
2019-02-05T01:02:58.108Z,11.00
2019-02-05T01:05:26.597Z,12.40
2019-02-05T01:07:55.614Z,10.80
2019-02-05T01:10:24.949Z,9.30
2019-02-05T01:12:54.533Z,10.43
2019-02-05T01:15:24.590Z,10.23
2019-02-05T01:17:53.586Z,11.18
2019-02-05T01:20:22.792Z,11.12
2019-02-05T01:22:51.435Z,11.00
2019-02-05T01:25:20.943Z,11.00
2019-02-05T01:27:49.878Z,10.85
2019-02-05T01:30:23.607Z,12.43
2019-02-05T01:32:52.435Z,11.05
2019-02-05T01:35:21.549Z,11.35
2019-02-05T01:37:50.040Z,11.05
2019-02-05T01:40:21.410Z,10.40
2019-02-05T01:42:49.846Z,11.68
2019-02-05T01:45:19.898Z,11.38
2019-02-05T01:47:48.664Z,12.07
2019-02-05T01:50:25.348Z,11.48
2019-02-05T01:52:54.050Z,10.60
2019-02-05T01:55:22.844Z,13.08
2019-02-05T01:57:51.278Z,11.15
2019-02-05T02:00:25.119Z,11.25
2019-02-05T02:02:53.541Z,11.73
2019-02-05T02:05:22.089Z,12.88
2019-02-05T02:07:50.586Z,11.53
2019-02-05T02:10:24.327Z,11.90
2019-02-05T02:12:53.694Z,11.35
2019-02-05T02:15:22.274Z,12.37
2019-02-05T02:17:50.766Z,12.75
2019-02-05T02:20:20.781Z,9.83
2019-02-05T02:22:50.015Z,11.18
2019-02-05T02:25:19.325Z,11.95
2019-02-05T02:27:50.043Z,12.43
2019-02-05T02:30:24.634Z,10.85
2019-02-05T02:32:53.066Z,9.63
2019-02-05T02:35:21.753Z,9.73
2019-02-05T02:37:50.890Z,11.35
2019-02-05T02:40:19.604Z,11.10
2019-02-05T02:42:48.030Z,11.25
2019-02-05T02:45:16.510Z,9.80
2019-02-05T02:47:44.956Z,10.82
2019-02-05T02:50:18.798Z,10.25
2019-02-05T02:52:47.672Z,10.43
2019-02-05T02:55:16.665Z,12.07
2019-02-05T02:57:45.226Z,11.38
2019-02-05T03:00:16.622Z,10.88
2019-02-05T03:02:45.939Z,10.10
2019-02-05T03:05:17.054Z,11.33
2019-02-05T03:07:46.460Z,10.98
2019-02-05T03:10:20.868Z,10.63
2019-02-05T03:12:49.352Z,10.45
2019-02-05T03:15:18.331Z,9.43
2019-02-05T03:17:47.018Z,10.93
2019-02-05T03:20:17.358Z,11.05
2019-02-05T03:22:46.065Z,10.03
2019-02-05T03:25:18.179Z,11.05
2019-02-05T03:27:46.730Z,9.78
2019-02-05T03:30:20.628Z,11.38
2019-02-05T03:32:49.661Z,9.73
2019-02-05T03:35:20.257Z,10.15
2019-02-05T03:37:49.108Z,11.03
2019-02-05T03:40:30.435Z,11.10
2019-02-05T03:42:59.499Z,9.10
2019-02-05T03:45:29.259Z,11.38
2019-02-05T03:48:00.830Z,10.23
2019-02-05T03:50:31.294Z,10.32
2019-02-05T03:53:21.646Z,10.80
2019-02-05T03:56:14.275Z,9.13
2019-02-05T03:59:06.805Z,10.60
2019-02-05T04:01:44.438Z,11.10
2019-02-05T04:04:44.918Z,10.43
2019-02-05T04:07:19.409Z,10.38
2019-02-05T04:09:50.911Z,9.65
2019-02-05T04:12:34.365Z,10.68
2019-02-05T04:15:22.510Z,10.18
2019-02-05T04:17:53.998Z,10.85
2019-02-05T04:20:34.610Z,10.05
2019-02-05T04:23:37.978Z,10.38
2019-02-05T04:26:30.581Z,11.53
2019-02-05T04:29:08.358Z,11.68
2019-02-05T04:31:56.531Z,11.35
2019-02-05T04:34:55.668Z,10.85
2019-02-05T04:37:27.177Z,11.22
2019-02-05T04:40:28.736Z,10.75
2019-02-05T04:43:14.542Z,10.03
2019-02-05T04:46:02.658Z,10.48
2019-02-05T04:49:05.063Z,10.55
2019-02-05T04:51:45.394Z,9.45
2019-02-05T04:54:19.805Z,11.80
2019-02-05T04:57:05.703Z,10.15
2019-02-05T04:59:43.215Z,11.78
2019-02-05T05:02:32.301Z,11.30
2019-02-05T05:05:06.739Z,12.15
2019-02-05T05:07:44.068Z,11.78
2019-02-05T05:10:12.803Z,10.85
2019-02-05T05:12:41.225Z,11.70
2019-02-05T05:15:10.591Z,11.68
2019-02-05T05:17:39.190Z,11.63
2019-02-05T05:20:10.130Z,11.80
2019-02-05T05:22:38.685Z,11.12
2019-02-05T05:25:09.618Z,12.53
2019-02-05T05:27:38.283Z,11.38
2019-02-05T05:30:12.527Z,12.82
2019-02-05T05:32:41.020Z,10.78
2019-02-05T05:35:10.177Z,11.35
2019-02-05T05:37:38.606Z,11.55
2019-02-05T05:40:08.938Z,10.93
2019-02-05T05:42:37.627Z,11.83
2019-02-05T05:45:09.379Z,13.08
2019-02-05T05:47:37.886Z,11.45
2019-02-05T05:50:09.861Z,11.60
2019-02-05T05:52:38.307Z,11.97
2019-02-05T05:55:07.326Z,11.25
2019-02-05T05:57:36.094Z,10.95
2019-02-05T06:00:07.654Z,11.03
2019-02-05T06:02:36.083Z,10.90
2019-02-05T06:05:07.202Z,10.55
2019-02-05T06:07:35.874Z,10.53
2019-02-05T06:10:07.499Z,10.25
2019-02-05T06:12:35.991Z,9.58
2019-02-05T06:15:06.750Z,10.88
2019-02-05T06:17:35.539Z,10.48
2019-02-05T06:20:06.861Z,10.10
2019-02-05T06:22:35.562Z,9.93
2019-02-05T06:25:05.519Z,9.48
2019-02-05T06:27:33.936Z,9.53
2019-02-05T06:30:02.362Z,8.63
2019-02-05T06:32:31.039Z,8.73
2019-02-05T06:34:59.752Z,8.40
2019-02-05T06:37:28.206Z,10.05
2019-02-05T06:39:56.640Z,8.93
2019-02-05T06:42:25.406Z,8.95
2019-02-05T06:44:53.897Z,8.80
2019-02-05T06:47:22.383Z,8.98
2019-02-05T06:49:50.814Z,8.48
2019-02-05T06:52:19.226Z,8.53
2019-02-05T06:54:47.875Z,10.85
2019-02-05T06:57:16.392Z,9.13
2019-02-05T06:59:45.002Z,8.40
2019-02-05T07:02:13.493Z,7.70
2019-02-05T07:04:41.918Z,9.63
2019-02-05T07:07:10.328Z,9.78
2019-02-05T07:09:38.759Z,8.73
2019-02-05T07:12:07.242Z,7.55
2019-02-05T07:14:35.932Z,9.60
2019-02-05T07:17:04.514Z,8.05
2019-02-05T07:19:32.988Z,8.93
2019-02-05T07:22:01.656Z,7.95
2019-02-05T07:24:30.403Z,9.48
2019-02-05T07:26:59.192Z,10.00
2019-02-05T07:29:27.919Z,9.85
2019-02-05T07:31:56.622Z,9.43
2019-02-05T07:34:25.419Z,8.83
2019-02-05T07:36:54.120Z,10.78
2019-02-05T07:39:22.537Z,9.88
2019-02-05T07:41:54.101Z,8.78
2019-02-05T07:44:27.855Z,9.55
2019-02-05T07:46:56.649Z,10.55
2019-02-05T07:49:25.061Z,8.78
2019-02-05T07:51:53.862Z,10.05
2019-02-05T07:54:22.611Z,8.58
2019-02-05T07:56:51.455Z,9.95
2019-02-05T07:59:20.133Z,8.63
2019-02-05T08:01:48.634Z,9.10
2019-02-05T08:04:17.118Z,8.55
2019-02-05T08:06:45.621Z,10.32
2019-02-05T08:09:14.106Z,10.00
2019-02-05T08:11:42.770Z,10.08
2019-02-05T08:14:11.270Z,9.75
2019-02-05T08:16:39.685Z,9.25
2019-02-05T08:19:08.463Z,10.03
2019-02-05T08:21:36.998Z,8.53
2019-02-05T08:24:05.546Z,8.95
2019-02-05T08:26:34.261Z,8.85
2019-02-05T08:29:05.113Z,9.93
2019-02-05T08:31:33.738Z,8.90
2019-02-05T08:34:03.331Z,9.93
2019-02-05T08:36:32.380Z,9.00
2019-02-05T08:39:01.030Z,9.20
2019-02-05T08:41:29.821Z,9.88
2019-02-05T08:43:58.510Z,8.73
2019-02-05T08:46:27.200Z,8.58
2019-02-05T08:48:55.658Z,8.40
2019-02-05T08:51:24.391Z,9.35
2019-02-05T08:53:52.937Z,8.45
2019-02-05T08:56:21.486Z,8.13
2019-02-05T08:58:49.910Z,8.05
2019-02-05T09:01:18.464Z,8.20
2019-02-05T09:03:46.974Z,7.83
2019-02-05T09:06:16.067Z,7.30
2019-02-05T09:08:44.621Z,7.22
2019-02-05T09:11:13.111Z,6.60
2019-02-05T09:13:41.555Z,8.70
2019-02-05T09:16:10.036Z,6.22
2019-02-05T09:18:38.529Z,7.05
2019-02-05T09:21:06.968Z,7.70
2019-02-05T09:23:35.927Z,7.75
2019-02-05T09:26:04.607Z,7.30
2019-02-05T09:28:33.050Z,7.30
2019-02-05T09:31:01.471Z,8.90
2019-02-05T09:33:30.292Z,8.95
2019-02-05T09:35:58.743Z,8.35
2019-02-05T09:38:27.574Z,9.25
2019-02-05T09:40:56.558Z,7.47
2019-02-05T09:43:25.299Z,8.70
2019-02-05T09:45:53.996Z,8.58
2019-02-05T09:48:22.472Z,9.25
2019-02-05T09:50:51.161Z,8.85
2019-02-05T09:53:19.738Z,10.23
2019-02-05T09:55:48.230Z,9.10
2019-02-05T09:58:18.611Z,8.60
2019-02-05T10:00:47.070Z,9.43
2019-02-05T10:03:15.601Z,9.10
2019-02-05T10:05:44.464Z,8.58
2019-02-05T10:08:13.100Z,8.50
2019-02-05T10:10:41.650Z,10.98
2019-02-05T10:13:10.070Z,9.00
2019-02-05T10:15:42.113Z,8.70
2019-02-05T10:18:12.838Z,9.05
2019-02-05T10:20:41.419Z,8.93
2019-02-05T10:23:10.138Z,10.48
2019-02-05T10:25:39.093Z,7.72
2019-02-05T10:28:07.654Z,8.55
2019-02-05T10:30:41.627Z,9.58
2019-02-05T10:33:10.414Z,10.03
2019-02-05T10:35:39.015Z,9.60
2019-02-05T10:38:07.588Z,10.65
2019-02-05T10:40:36.169Z,7.95
2019-02-05T10:43:05.662Z,9.53
2019-02-05T10:45:34.809Z,9.08
2019-02-05T10:48:04.001Z,9.25
2019-02-05T10:50:32.695Z,7.92
2019-02-05T10:53:01.166Z,8.75
2019-02-05T10:55:29.676Z,9.98
2019-02-05T10:57:58.522Z,7.65
2019-02-05T11:00:29.435Z,8.20
2019-02-05T11:02:59.979Z,8.88
2019-02-05T11:05:30.102Z,9.08
2019-02-05T11:07:58.812Z,8.50
2019-02-05T11:10:27.524Z,7.90
2019-02-05T11:12:56.011Z,7.03
2019-02-05T11:15:27.643Z,8.28
2019-02-05T11:17:56.274Z,8.07
2019-02-05T11:20:27.275Z,8.08
2019-02-05T11:22:56.158Z,8.38
2019-02-05T11:25:25.440Z,8.13
2019-02-05T11:27:54.205Z,7.70
2019-02-05T11:30:31.654Z,7.42
2019-02-05T11:33:00.134Z,7.80
2019-02-05T11:35:29.303Z,7.70
2019-02-05T11:37:57.838Z,7.17
2019-02-05T11:40:34.555Z,8.07
2019-02-05T11:43:03.150Z,6.40
2019-02-05T11:45:32.419Z,6.80
2019-02-05T11:48:02.479Z,6.90
2019-02-05T11:50:31.267Z,8.87
2019-02-05T11:52:59.982Z,7.23
2019-02-05T11:55:31.691Z,7.13
2019-02-05T11:58:00.428Z,7.13
2019-02-05T12:00:32.804Z,8.20
2019-02-05T12:03:01.117Z,7.93
2019-02-05T12:05:29.593Z,8.27
2019-02-05T12:07:58.361Z,8.67
2019-02-05T12:10:27.025Z,7.50
2019-02-05T12:12:55.486Z,7.67
2019-02-05T12:15:23.639Z,7.00
2019-02-05T12:17:52.138Z,8.97
2019-02-05T12:20:20.846Z,8.00
2019-02-05T12:22:51.641Z,6.80
2019-02-05T12:25:24.559Z,5.80
2019-02-05T12:27:53.156Z,5.60
2019-02-05T12:30:44.472Z,8.77
2019-02-05T12:33:05.502Z,12.77
2019-02-05T12:35:33.991Z,13.23
2019-02-05T12:38:03.035Z,12.83
2019-02-05T12:40:31.735Z,12.77
2019-02-05T12:43:00.195Z,11.93
2019-02-05T12:45:30.951Z,13.07
2019-02-05T12:47:59.461Z,11.87
2019-02-05T12:50:34.122Z,12.60
2019-02-05T12:53:02.976Z,11.83
2019-02-05T12:55:31.466Z,12.30
2019-02-05T12:58:00.162Z,11.70
2019-02-05T13:00:39.810Z,11.27
2019-02-05T13:03:09.578Z,14.70
2019-02-05T13:05:38.636Z,13.80
2019-02-05T13:08:07.758Z,13.30
2019-02-05T13:10:39.250Z,15.00
2019-02-05T13:13:08.126Z,16.70
2019-02-05T13:15:37.041Z,17.40
2019-02-05T13:18:05.553Z,17.90
2019-02-05T13:20:34.039Z,15.13
2019-02-05T13:23:04.059Z,17.73
2019-02-05T13:25:34.220Z,16.60
2019-02-05T13:28:02.877Z,17.60
2019-02-05T13:30:35.943Z,19.13
2019-02-05T13:33:06.458Z,17.13
2019-02-05T13:35:35.150Z,18.63
2019-02-05T13:38:04.105Z,18.43
2019-02-05T13:40:32.625Z,17.67
2019-02-05T13:43:01.473Z,16.20
2019-02-05T13:45:32.642Z,18.10
2019-02-05T13:48:02.677Z,16.50
2019-02-05T13:50:33.768Z,16.70
2019-02-05T13:53:02.487Z,16.30
2019-02-05T13:55:33.051Z,18.17
2019-02-05T13:58:01.861Z,17.90
2019-02-05T14:00:32.914Z,17.43
2019-02-05T14:03:01.609Z,19.80
2019-02-05T14:05:30.120Z,19.10
2019-02-05T14:07:58.533Z,18.73
2019-02-05T14:10:32.421Z,21.30
2019-02-05T14:13:00.846Z,19.97
2019-02-05T14:15:34.607Z,17.60
2019-02-05T14:18:03.581Z,18.73
2019-02-05T14:20:32.022Z,17.87
2019-02-05T14:23:00.774Z,17.50
2019-02-05T14:25:29.733Z,19.33
2019-02-05T14:27:58.228Z,20.80
2019-02-05T14:30:35.903Z,19.07
2019-02-05T14:33:04.635Z,17.87
2019-02-05T14:35:33.205Z,18.73
2019-02-05T14:38:01.800Z,21.30
2019-02-05T14:40:31.120Z,20.50
2019-02-05T14:43:00.317Z,22.13
2019-02-05T14:45:28.757Z,21.50
2019-02-05T14:47:57.516Z,23.53
2019-02-05T14:50:34.625Z,21.93
2019-02-05T14:53:03.593Z,23.30
2019-02-05T14:55:32.088Z,22.10
2019-02-05T14:58:00.505Z,21.83
2019-02-05T15:00:33.821Z,21.50
2019-02-05T15:03:04.295Z,23.17
2019-02-05T15:05:32.728Z,20.40
2019-02-05T15:08:01.223Z,22.42
2019-02-05T15:10:29.718Z,20.30
2019-02-05T15:12:58.210Z,19.77
2019-02-05T15:15:28.376Z,22.17
2019-02-05T15:17:57.197Z,21.10
2019-02-05T15:20:36.223Z,22.48
2019-02-05T15:23:05.944Z,22.67
2019-02-05T15:25:34.858Z,20.10
2019-02-05T15:28:03.651Z,22.73
2019-02-05T15:30:37.468Z,21.85
2019-02-05T15:33:10.166Z,21.07
2019-02-05T15:35:40.334Z,21.68
2019-02-05T15:38:08.825Z,21.33
2019-02-05T15:40:37.425Z,24.70
2019-02-05T15:43:06.297Z,20.62
2019-02-05T15:45:34.968Z,23.47
2019-02-05T15:48:03.736Z,24.05
2019-02-05T15:50:32.447Z,22.30
2019-02-05T15:53:00.933Z,22.98
2019-02-05T15:55:29.375Z,22.77
2019-02-05T15:57:58.420Z,21.33
2019-02-05T16:00:28.481Z,21.93
2019-02-05T16:02:56.990Z,23.50
2019-02-05T16:05:25.410Z,22.48
2019-02-05T16:07:53.850Z,23.80
2019-02-05T16:10:26.973Z,21.85
2019-02-05T16:12:55.918Z,21.60
2019-02-05T16:15:24.338Z,22.00
2019-02-05T16:17:52.910Z,24.70
2019-02-05T16:20:22.078Z,22.93
2019-02-05T16:22:51.255Z,24.60
2019-02-05T16:25:19.681Z,25.20
2019-02-05T16:27:48.123Z,22.55
2019-02-05T16:30:30.440Z,25.82
2019-02-05T16:32:58.882Z,25.62
2019-02-05T16:35:27.305Z,23.02
2019-02-05T16:37:55.989Z,26.07
2019-02-05T16:40:27.806Z,23.18
2019-02-05T16:42:56.411Z,26.20
2019-02-05T16:45:27.376Z,24.05
2019-02-05T16:47:55.874Z,24.00
2019-02-05T16:50:26.737Z,25.30
2019-02-05T16:52:55.569Z,23.32
2019-02-05T16:55:24.207Z,25.40
2019-02-05T16:57:52.718Z,26.97
2019-02-05T17:00:23.684Z,25.72
2019-02-05T17:02:52.750Z,24.25
2019-02-05T17:05:22.763Z,24.80
2019-02-05T17:07:51.190Z,26.20
2019-02-05T17:10:21.355Z,23.30
2019-02-05T17:12:50.044Z,24.50
2019-02-05T17:15:19.505Z,25.12
2019-02-05T17:17:48.076Z,24.07
2019-02-05T17:20:22.530Z,22.90
2019-02-05T17:22:51.390Z,26.00
2019-02-05T17:25:21.950Z,25.17
2019-02-05T17:27:51.271Z,26.15
2019-02-05T17:30:22.014Z,25.32
2019-02-05T17:32:50.693Z,27.15
2019-02-05T17:35:19.335Z,27.55
2019-02-05T17:37:47.864Z,29.27
2019-02-05T17:40:18.447Z,27.32
2019-02-05T17:42:47.136Z,28.47
2019-02-05T17:45:18.399Z,27.45
2019-02-05T17:47:46.955Z,30.70
2019-02-05T17:50:15.526Z,27.70
2019-02-05T17:52:43.963Z,27.40
2019-02-05T17:55:14.904Z,27.07
2019-02-05T17:57:43.901Z,25.48
2019-02-05T18:00:21.099Z,26.95
2019-02-05T18:02:51.671Z,27.10
2019-02-05T18:05:20.897Z,26.07
2019-02-05T18:07:49.390Z,25.57
2019-02-05T18:10:23.738Z,25.02
2019-02-05T18:12:52.159Z,24.47
2019-02-05T18:15:23.299Z,27.22
2019-02-05T18:17:51.722Z,27.10
2019-02-05T18:20:20.361Z,26.70
2019-02-05T18:22:49.205Z,24.65
2019-02-05T18:25:26.462Z,27.00
2019-02-05T18:27:54.948Z,26.97
2019-02-05T18:30:28.559Z,27.35
2019-02-05T18:33:04.130Z,26.87
2019-02-05T18:35:27.350Z,26.93
2019-02-05T18:37:56.001Z,27.22
2019-02-05T18:40:28.204Z,28.60
2019-02-05T18:42:56.859Z,25.70
2019-02-05T18:45:25.396Z,27.55
2019-02-05T18:47:53.813Z,25.62
2019-02-05T18:50:26.930Z,28.23
2019-02-05T18:52:55.494Z,27.10
2019-02-05T18:55:43.806Z,27.50
2019-02-05T18:58:12.229Z,27.87
2019-02-05T19:00:43.277Z,25.32
2019-02-05T19:03:16.165Z,29.90
2019-02-05T19:05:42.465Z,28.90
2019-02-05T19:08:11.571Z,27.35
2019-02-05T19:10:40.412Z,25.52
2019-02-05T19:13:08.915Z,26.35
2019-02-05T19:15:39.666Z,23.50
2019-02-05T19:18:09.378Z,23.65
2019-02-05T19:20:37.814Z,25.57
2019-02-05T19:23:08.192Z,24.50
2019-02-05T19:25:44.744Z,27.10
2019-02-05T19:28:18.146Z,27.93
2019-02-05T19:30:51.261Z,27.58
2019-02-05T19:33:27.187Z,26.27
2019-02-05T19:35:50.642Z,27.45
2019-02-05T19:38:19.341Z,29.75
2019-02-05T19:40:57.219Z,28.85
2019-02-05T19:43:23.110Z,27.50
2019-02-05T19:45:56.555Z,26.30
2019-02-05T19:48:30.234Z,27.40
2019-02-05T19:50:59.461Z,23.07
2019-02-05T19:53:28.684Z,27.45
2019-02-05T19:55:58.366Z,27.05
2019-02-05T19:58:27.187Z,26.75
2019-02-05T20:00:56.362Z,26.27
2019-02-05T20:03:25.162Z,30.95
2019-02-05T20:05:55.466Z,28.40
2019-02-05T20:08:26.909Z,26.30
2019-02-05T20:10:57.721Z,25.80
2019-02-05T20:13:26.374Z,27.48
2019-02-05T20:15:55.639Z,28.62
2019-02-05T20:18:24.188Z,25.90
2019-02-05T20:20:52.739Z,25.72
2019-02-05T20:23:21.216Z,25.35
2019-02-05T20:25:49.650Z,24.32
2019-02-05T20:28:18.482Z,23.83
2019-02-05T20:30:46.904Z,22.35
2019-02-05T20:33:16.847Z,20.60
2019-02-05T20:35:45.274Z,20.30
2019-02-05T20:38:13.716Z,18.35
2019-02-05T20:40:42.195Z,20.57
2019-02-05T20:43:10.651Z,21.23
2019-02-05T20:45:39.092Z,19.90
2019-02-05T20:48:07.738Z,23.10
2019-02-05T20:50:36.797Z,20.35
2019-02-05T20:53:13.660Z,20.37
2019-02-05T20:55:35.695Z,19.60
2019-02-05T20:58:04.542Z,19.87
2019-02-05T21:03:11.860Z,19.50
2019-02-05T21:05:40.801Z,17.32
2019-02-05T21:08:09.337Z,18.90
2019-02-05T21:10:38.278Z,17.80
2019-02-05T21:13:06.742Z,16.65
2019-02-05T21:15:35.401Z,17.82
2019-02-05T21:18:04.462Z,18.45
2019-02-05T21:20:33.951Z,18.50
2019-02-05T21:23:02.793Z,17.92
2019-02-05T21:25:31.204Z,19.30
2019-02-05T21:27:59.709Z,17.62
2019-02-05T21:30:28.954Z,19.10
2019-02-05T21:32:57.377Z,18.05
2019-02-05T21:35:26.033Z,19.82
2019-02-05T21:37:54.504Z,18.27
2019-02-05T21:40:26.966Z,19.65
2019-02-05T21:42:55.451Z,19.27
2019-02-05T21:45:30.830Z,18.37
2019-02-05T21:47:59.650Z,18.12
2019-02-05T21:50:28.310Z,20.70
2019-02-05T21:52:57.137Z,18.10
2019-02-05T21:55:27.376Z,17.98
2019-02-05T21:57:56.364Z,17.87
2019-02-05T22:00:30.455Z,19.48
2019-02-05T22:02:59.090Z,20.65
2019-02-05T22:05:29.129Z,19.60
2019-02-05T22:07:58.043Z,18.32
2019-02-05T22:10:26.567Z,19.82
2019-02-05T22:12:55.030Z,20.08
2019-02-05T22:15:23.869Z,21.07
2019-02-05T22:17:52.790Z,18.23
2019-02-05T22:20:26.287Z,19.30
2019-02-05T22:22:57.287Z,19.02
2019-02-05T22:25:32.125Z,22.40
2019-02-05T22:28:01.781Z,20.88
2019-02-05T22:30:38.341Z,17.87
2019-02-05T22:33:08.390Z,21.35
2019-02-05T22:35:37.202Z,19.05
2019-02-05T22:38:05.902Z,19.75
2019-02-05T22:40:34.471Z,20.52
2019-02-05T22:43:03.610Z,18.73
2019-02-05T22:45:32.572Z,19.00
2019-02-05T22:48:01.055Z,19.42
2019-02-05T22:50:34.594Z,19.67
2019-02-05T22:53:06.297Z,19.10
2019-02-05T22:55:35.072Z,18.85
2019-02-05T22:58:03.759Z,17.45
2019-02-05T23:00:50.818Z,18.23
2019-02-05T23:03:22.537Z,17.77
2019-02-05T23:06:25.067Z,19.17
2019-02-05T23:08:55.621Z,18.98
2019-02-05T23:11:42.286Z,17.87
2019-02-05T23:14:10.701Z,20.77
2019-02-05T23:16:39.130Z,18.20
2019-02-05T23:19:07.537Z,20.23
2019-02-05T23:21:36.634Z,18.07
2019-02-05T23:24:05.530Z,19.02
2019-02-05T23:26:33.945Z,16.97
2019-02-05T23:29:02.357Z,18.17
2019-02-05T23:31:30.783Z,18.77
2019-02-05T23:33:59.551Z,19.48
2019-02-05T23:36:27.973Z,18.95
2019-02-05T23:38:57.026Z,19.73
2019-02-05T23:41:25.452Z,17.05
2019-02-05T23:43:53.886Z,16.62
2019-02-05T23:46:22.309Z,16.05
2019-02-05T23:48:51.015Z,17.70
2019-02-05T23:51:19.600Z,16.20
2019-02-05T23:53:48.070Z,17.55
2019-02-05T23:56:25.445Z,18.52
2019-02-05T23:58:47.187Z,18.73
